Flight Track Log - Related Links

Times and Time Zones

All times are in EDT time to prevent confusion due to time zone crossing. See the N7985N flight status page for this flight to view local times or setup timezone preferences in your user account.

Time Position Orientation Groundspeed Altitude Reporting Facility
EDT Latitude Longitude Course Direction KTS MPH feet Rate Location/Type
Sat 10:21:19 PM 37.1297 -76.4989 244° Southwest 54 62 500  Level Washington Center
Sat 10:22:22 PM 37.1231 -76.5158 244° Southwest 46 53 1,500 803 Climbing Washington Center
Sat 10:23:26 PM 37.1131 -76.5269 222° Southwest 73 84 2,200 637 Climbing Washington Center
Sat 10:24:15 PM 37.0972 -76.5161 151° Southeast 81 93 2,700 610 Climbing Washington Center
Sat 10:24:25 PM 37.0917 -76.5142 164° South 87 100 2,800 590 Climbing Washington Center
Sat 10:25:16 PM 37.0739 -76.5033 154° Southeast 87 100 3,300 541 Climbing Washington Center
Sat 10:26:16 PM 37.0483 -76.4861 152° Southeast 100 115 3,800 593 Climbing Washington Center
Sat 10:26:47 PM 37.0325 -76.4753 151° Southeast 107 123 4,200 590 Climbing Washington Center
Sat 10:27:17 PM 37.0222 -76.4683 152° Southeast 103 119 4,400 545 Climbing Washington Center
Sat 10:27:42 PM 37.0075 -76.4564 147° Southeast 113 130 4,700 563 Climbing Washington Center
Sat 10:28:21 PM 36.9950 -76.4486 154° Southeast 110 127 5,000 400 Climbing Washington Center
Sat 10:28:42 PM 36.9783 -76.4392 156° South 117 135 5,100 100 Climbing Washington Center
Sat 10:29:21 PM 36.9578 -76.4253 152° Southeast 122 140 5,100  Level Washington Center
Sat 10:29:43 PM 36.9456 -76.4158 148° Southeast 136 157 5,100  Level Washington Center
Sat 10:30:23 PM 36.9256 -76.3978 144° Southeast 136 157 5,100  Level Washington Center
Sat 10:30:45 PM 36.9136 -76.3878 146° Southeast 138 159 5,100  Level Washington Center
Sat 10:31:24 PM 36.8947 -76.3733 149° Southeast 136 157 5,100  Level Washington Center
Sat 10:31:46 PM 36.8814 -76.3619 146° Southeast 133 153 5,100  Level Washington Center
Sat 10:32:26 PM 36.8631 -76.3497 152° Southeast 135 155 5,100  Level Washington Center
Sat 10:32:47 PM 36.8503 -76.3419 154° Southeast 133 153 5,100  Level Washington Center
Sat 10:33:27 PM 36.8303 -76.3292 153° Southeast 135 155 5,100  Level Washington Center
Sat 10:33:46 PM 36.8197 -76.3192 143° Southeast 130 150 5,100  Level Washington Center
Sat 10:34:28 PM 36.7997 -76.3058 152° Southeast 134 154 5,100  Level Washington Center
Sat 10:34:46 PM 36.7850 -76.2956 151° Southeast 126 145 5,100  Level Washington Center
Sat 10:35:28 PM 36.7692 -76.2853 153° Southeast 130 150 5,100  Level Washington Center
Sat 10:35:49 PM 36.7561 -76.2761 151° Southeast 124 143 5,100  Level Washington Center
Sat 10:36:31 PM 36.7383 -76.2653 154° Southeast 129 148 5,100  Level Washington Center
Sat 10:36:49 PM 36.7250 -76.2558 150° Southeast 127 146 5,100  Level Washington Center
Sat 10:37:32 PM 36.7047 -76.2439 155° Southeast 128 147 5,100  Level Washington Center
Sat 10:37:48 PM 36.6939 -76.2358 149° Southeast 124 143 5,100  Level Washington Center
Sat 10:38:33 PM 36.6733 -76.2242 156° South 128 147 5,100  Level Washington Center
Sat 10:38:49 PM 36.6608 -76.2156 151° Southeast 129 148 5,100 79 Level Washington Center
Sat 10:39:49 PM 36.6297 -76.1956 153° Southeast 128 147 5,200  Climbing Washington Center
Sat 10:40:35 PM 36.6106 -76.1831 152° Southeast 128 147 5,100 -98 Descending Washington Center
Sat 10:40:50 PM 36.5967 -76.1750 155° Southeast 129 148 5,100  Level Washington Center
Sat 10:41:36 PM 36.5778 -76.1631 153° Southeast 128 147 5,100  Level Washington Center
Sat 10:41:51 PM 36.5658 -76.1550 152° Southeast 129 148 5,100  Level Washington Center
Sat 10:42:37 PM 36.5417 -76.1364 148° Southeast 128 147 5,100  Level Washington Center
Sat 10:42:52 PM 36.5331 -76.1319 157° South 128 147 5,100  Level Washington Center
Sat 10:43:38 PM 36.5092 -76.1156 151° Southeast 128 147 5,100  Level Washington Center
Sat 10:43:53 PM 36.5022 -76.1094 145° Southeast 129 148 5,100 -98 Level Washington Center
Sat 10:44:39 PM 36.4778 -76.0950 155° Southeast 128 147 5,000 -305 Descending Washington Center
Sat 10:44:52 PM 36.4692 -76.0892 151° Southeast 128 147 4,800 -581 Descending Washington Center
Sat 10:45:41 PM 36.4461 -76.0742 152° Southeast 128 147 4,400 -492 Descending Washington Center
Sat 10:45:53 PM 36.4381 -76.0692 153° Southeast 130 150 4,300 -197 Descending Washington Center
Sat 10:46:42 PM 36.4161 -76.0522 148° Southeast 128 147 4,200 -197 Descending Washington Center
Sat 10:46:54 PM 36.4075 -76.0469 154° Southeast 125 144 4,100  Descending Washington Center
Sat 10:47:44 PM 36.3861 -76.0322 151° Southeast 127 146 4,200 55 Climbing Washington Center
Sat 10:48:44 PM 36.3569 -76.0111 150° Southeast 125 144 4,200  Level Washington Center
Sat 10:49:46 PM 36.3278 -75.9875 147° Southeast 125 144 4,200  Level Washington Center
Sat 10:50:47 PM 36.3011 -75.9581 138° Southeast 126 145 4,200  Level Washington Center
Sat 10:51:48 PM 36.2808 -75.9142 120° Southeast 140 161 4,200  Level Washington Center
Sat 10:52:49 PM 36.2564 -75.8639 121° Southeast 141 162 4,200  Level Washington Center
Sat 10:53:49 PM 36.2358 -75.8244 123° Southeast 141 162 4,200  Level Washington Center
Sat 10:54:50 PM 36.2128 -75.7847 126° Southeast 141 162 4,200  Level Washington Center
Sat 10:55:51 PM 36.1892 -75.7475 128° Southeast 141 162 4,200  Level Washington Center
Sat 10:56:53 PM 36.1658 -75.7114 129° Southeast 140 161 4,200  Level Washington Center
Sat 10:57:52 PM 36.1411 -75.6769 132° Southeast 139 160 4,200 50 Level Washington Center
Sat 10:58:54 PM 36.1175 -75.6403 129° Southeast 138 159 4,300 -244 Climbing Washington Center
Sat 10:59:55 PM 36.0939 -75.6033 128° Southeast 138 159 3,700 -689 Descending Washington Center
Sat 11:00:56 PM 36.0700 -75.5658 128° Southeast 138 159 2,900 -700 Descending Washington Center
Sat 11:01:55 PM 36.0456 -75.5789 203° Southwest 128 147 2,300 -500 Descending Washington Center
Sat 11:02:56 PM 36.0256 -75.5889 202° Southwest 104 120 1,900 -242 Descending Washington Center
Sat 11:03:59 PM 36.0106 -75.6053 221° Southwest 87 100 1,800 -48 Descending Washington Center
Sat 11:05:00 PM 35.9953 -75.6217 221° Southwest 70 81 1,800  Level Washington Center
Sat 11:06:00 PM 35.9673 -75.6488 189° South  Level Estimated
Sat 11:13:00 PM 35.9167 -75.6833 189° South  Level FlightAware Approximate
Sat 11:14:00 PM 35.9190 -75.6955 219° Southwest  Level Estimated
Sat 11:15:00 PM 35.9190 -75.6955 103° East  Level Estimated
Sat 11:16:00 PM 35.9190 -75.6955 189° South  Level Estimated
Sat 11:17:00 PM 35.9190 -75.6955 103° East  Level Estimated
Sat 11:18:00 PM 35.9190 -75.6955 103° East  Level Estimated

Login

Don't have an account? Register now (free) for customized features, flight alerts, and more!